sensor_id;sensor_type;location;lat;lon;timestamp;pressure;altitude;pressure_sealevel;temperature;humidity
71666;BME280;59503;53.486;10.196;2023-06-22T00:01:18;101976.75;;;16.31;100.00
71666;BME280;59503;53.486;10.196;2023-06-22T00:03:44;101992.13;;;16.39;100.00
71666;BME280;59503;53.486;10.196;2023-06-22T00:06:09;101985.06;;;16.38;100.00
71666;BME280;59503;53.486;10.196;2023-06-22T00:08:35;101983.47;;;16.37;100.00
71666;BME280;59503;53.486;10.196;2023-06-22T00:11:00;101983.47;;;16.37;100.00
71666;BME280;59503;53.486;10.196;2023-06-22T00:13:26;101979.16;;;16.36;100.00
71666;BME280;59503;53.486;10.196;2023-06-22T00:15:51;101972.09;;;16.35;100.00
71666;BME280;59503;53.486;10.196;2023-06-22T00:18:16;101979.91;;;16.33;100.00
71666;BME280;59503;53.486;10.196;2023-06-22T00:20:42;101984.66;;;16.36;100.00
71666;BME280;59503;53.486;10.196;2023-06-22T00:23:08;101972.81;;;16.32;100.00
71666;BME280;59503;53.486;10.196;2023-06-22T00:25:40;101968.94;;;16.33;100.00
71666;BME280;59503;53.486;10.196;2023-06-22T00:28:06;101968.19;;;16.36;100.00
71666;BME280;59503;53.486;10.196;2023-06-22T00:30:33;101969.75;;;16.37;100.00
71666;BME280;59503;53.486;10.196;2023-06-22T00:32:59;101964.97;;;16.30;100.00
71666;BME280;59503;53.486;10.196;2023-06-22T00:35:25;101982.59;;;16.29;100.00
71666;BME280;59503;53.486;10.196;2023-06-22T00:37:58;101988.03;;;16.26;100.00
71666;BME280;59503;53.486;10.196;2023-06-22T00:40:29;101993.84;;;16.21;100.00
71666;BME280;59503;53.486;10.196;2023-06-22T00:42:56;101999.69;;;16.19;100.00
71666;BME280;59503;53.486;10.196;2023-06-22T00:45:22;101997.63;;;16.12;100.00
71666;BME280;59503;53.486;10.196;2023-06-22T00:47:50;101986.88;;;16.00;100.00
71666;BME280;59503;53.486;10.196;2023-06-22T00:50:19;101993.59;;;16.06;100.00
71666;BME280;59503;53.486;10.196;2023-06-22T00:52:48;101999.22;;;16.13;100.00
71666;BME280;59503;53.486;10.196;2023-06-22T00:55:16;101996.09;;;16.15;100.00
71666;BME280;59503;53.486;10.196;2023-06-22T00:57:47;101988.59;;;16.12;100.00
71666;BME280;59503;53.486;10.196;2023-06-22T01:00:14;101997.31;;;16.17;100.00
71666;BME280;59503;53.486;10.196;2023-06-22T01:02:42;101984.00;;;16.19;100.00
71666;BME280;59503;53.486;10.196;2023-06-22T01:05:11;101991.09;;;16.21;100.00
71666;BME280;59503;53.486;10.196;2023-06-22T01:10:44;101992.66;;;16.22;100.00
71666;BME280;59503;53.486;10.196;2023-06-22T01:18:35;101998.84;;;16.15;100.00
71666;BME280;59503;53.486;10.196;2023-06-22T01:21:04;101993.66;;;16.10;100.00
71666;BME280;59503;53.486;10.196;2023-06-22T01:26:22;101988.13;;;16.06;100.00
71666;BME280;59503;53.486;10.196;2023-06-22T01:28:54;101979.47;;;16.04;100.00
71666;BME280;59503;53.486;10.196;2023-06-22T01:31:24;101978.25;;;16.02;100.00
71666;BME280;59503;53.486;10.196;2023-06-22T01:33:53;101983.38;;;16.03;100.00
71666;BME280;59503;53.486;10.196;2023-06-22T01:36:21;101984.06;;;15.97;100.00
71666;BME280;59503;53.486;10.196;2023-06-22T01:38:48;101973.03;;;15.93;100.00
71666;BME280;59503;53.486;10.196;2023-06-22T01:41:16;101978.94;;;15.95;100.00
71666;BME280;59503;53.486;10.196;2023-06-22T01:43:42;101977.66;;;15.89;100.00
71666;BME280;59503;53.486;10.196;2023-06-22T01:46:08;101977.66;;;15.89;100.00
71666;BME280;59503;53.486;10.196;2023-06-22T01:48:34;101976.47;;;15.87;100.00
71666;BME280;59503;53.486;10.196;2023-06-22T01:50:59;101984.25;;;15.85;100.00
71666;BME280;59503;53.486;10.196;2023-06-22T01:53:25;101978.72;;;15.81;100.00
71666;BME280;59503;53.486;10.196;2023-06-22T01:55:50;101984.94;;;15.78;100.00
71666;BME280;59503;53.486;10.196;2023-06-22T01:58:16;101975.47;;;15.76;100.00
71666;BME280;59503;53.486;10.196;2023-06-22T02:00:53;101978.59;;;15.74;100.00
71666;BME280;59503;53.486;10.196;2023-06-22T02:03:22;101980.94;;;15.72;100.00
71666;BME280;59503;53.486;10.196;2023-06-22T02:05:58;101983.16;;;15.67;100.00
71666;BME280;59503;53.486;10.196;2023-06-22T02:08:31;101983.09;;;15.63;100.00
71666;BME280;59503;53.486;10.196;2023-06-22T02:10:59;101982.25;;;15.59;100.00
71666;BME280;59503;53.486;10.196;2023-06-22T02:13:26;101979.81;;;15.54;100.00
71666;BME280;59503;53.486;10.196;2023-06-22T02:15:52;101983.28;;;15.51;100.00
71666;BME280;59503;53.486;10.196;2023-06-22T02:18:18;101985.19;;;15.47;100.00
71666;BME280;59503;53.486;10.196;2023-06-22T02:20:43;101977.66;;;15.44;100.00
71666;BME280;59503;53.486;10.196;2023-06-22T02:23:09;101968.50;;;15.37;100.00
71666;BME280;59503;53.486;10.196;2023-06-22T02:25:35;101971.97;;;15.34;100.00
71666;BME280;59503;53.486;10.196;2023-06-22T02:28:01;101978.66;;;15.36;100.00
71666;BME280;59503;53.486;10.196;2023-06-22T02:30:26;101968.44;;;15.33;100.00
71666;BME280;59503;53.486;10.196;2023-06-22T02:32:52;101965.28;;;15.31;100.00
71666;BME280;59503;53.486;10.196;2023-06-22T02:35:25;101969.94;;;15.31;100.00
71666;BME280;59503;53.486;10.196;2023-06-22T02:37:50;101971.47;;;15.28;100.00
71666;BME280;59503;53.486;10.196;2023-06-22T02:40:17;101965.13;;;15.24;100.00
71666;BME280;59503;53.486;10.196;2023-06-22T02:42:42;101965.88;;;15.21;100.00
71666;BME280;59503;53.486;10.196;2023-06-22T02:45:08;101964.59;;;15.15;100.00
71666;BME280;59503;53.486;10.196;2023-06-22T02:47:34;101977.47;;;15.15;100.00
71666;BME280;59503;53.486;10.196;2023-06-22T02:50:00;101969.94;;;15.08;100.00
71666;BME280;59503;53.486;10.196;2023-06-22T02:52:26;101981.25;;;15.07;100.00
71666;BME280;59503;53.486;10.196;2023-06-22T02:54:52;101974.91;;;15.03;100.00
71666;BME280;59503;53.486;10.196;2023-06-22T02:57:17;101972.44;;;14.98;100.00
71666;BME280;59503;53.486;10.196;2023-06-22T02:59:43;101973.09;;;14.91;100.00
71666;BME280;59503;53.486;10.196;2023-06-22T03:02:09;101970.38;;;14.91;100.00
71666;BME280;59503;53.486;10.196;2023-06-22T03:04:35;101973.84;;;14.88;100.00
71666;BME280;59503;53.486;10.196;2023-06-22T03:07:01;101964.47;;;14.89;100.00
71666;BME280;59503;53.486;10.196;2023-06-22T03:09:28;101977.00;;;14.90;100.00
71666;BME280;59503;53.486;10.196;2023-06-22T03:11:54;101981.75;;;14.93;100.00
71666;BME280;59503;53.486;10.196;2023-06-22T03:14:20;101988.88;;;14.98;100.00
71666;BME280;59503;53.486;10.196;2023-06-22T03:16:45;101985.78;;;14.99;100.00
71666;BME280;59503;53.486;10.196;2023-06-22T03:19:11;101975.56;;;14.96;100.00
71666;BME280;59503;53.486;10.196;2023-06-22T03:21:38;101985.41;;;15.01;100.00
71666;BME280;59503;53.486;10.196;2023-06-22T03:24:04;101975.69;;;15.03;100.00
71666;BME280;59503;53.486;10.196;2023-06-22T03:26:30;101981.25;;;15.07;100.00
71666;BME280;59503;53.486;10.196;2023-06-22T03:28:56;101992.28;;;15.10;100.00
71666;BME280;59503;53.486;10.196;2023-06-22T03:31:22;101986.78;;;15.10;100.00
71666;BME280;59503;53.486;10.196;2023-06-22T03:33:48;101990.44;;;15.18;100.00
71666;BME280;59503;53.486;10.196;2023-06-22T03:36:15;101988.06;;;15.35;100.00
71666;BME280;59503;53.486;10.196;2023-06-22T03:38:48;101993.28;;;15.40;100.00
71666;BME280;59503;53.486;10.196;2023-06-22T03:41:14;101996.84;;;15.44;100.00
71666;BME280;59503;53.486;10.196;2023-06-22T03:43:40;101996.97;;;15.51;100.00
71666;BME280;59503;53.486;10.196;2023-06-22T03:46:06;101999.06;;;15.58;100.00
71666;BME280;59503;53.486;10.196;2023-06-22T03:48:31;102005.03;;;15.63;100.00
71666;BME280;59503;53.486;10.196;2023-06-22T03:51:01;102008.34;;;15.72;100.00
71666;BME280;59503;53.486;10.196;2023-06-22T03:53:28;102007.72;;;15.82;100.00
71666;BME280;59503;53.486;10.196;2023-06-22T03:55:53;102014.91;;;15.90;100.00
71666;BME280;59503;53.486;10.196;2023-06-22T03:58:20;102019.78;;;16.00;100.00
71666;BME280;59503;53.486;10.196;2023-06-22T04:00:46;102013.59;;;16.07;100.00
71666;BME280;59503;53.486;10.196;2023-06-22T04:03:13;102024.69;;;16.14;100.00
71666;BME280;59503;53.486;10.196;2023-06-22T04:05:39;102027.13;;;16.19;100.00
71666;BME280;59503;53.486;10.196;2023-06-22T04:08:05;102025.28;;;16.27;100.00
71666;BME280;59503;53.486;10.196;2023-06-22T04:10:31;102030.44;;;16.32;100.00
71666;BME280;59503;53.486;10.196;2023-06-22T04:12:57;102045.47;;;16.38;100.00
71666;BME280;59503;53.486;10.196;2023-06-22T04:15:22;102037.69;;;16.43;100.00
71666;BME280;59503;53.486;10.196;2023-06-22T04:17:47;102042.56;;;16.53;100.00
71666;BME280;59503;53.486;10.196;2023-06-22T04:20:13;102031.63;;;16.57;100.00
71666;BME280;59503;53.486;10.196;2023-06-22T04:22:38;102035.72;;;16.66;100.00
71666;BME280;59503;53.486;10.196;2023-06-22T04:25:05;102038.94;;;16.75;100.00
71666;BME280;59503;53.486;10.196;2023-06-22T04:27:32;102045.78;;;16.85;100.00
71666;BME280;59503;53.486;10.196;2023-06-22T04:29:58;102039.16;;;16.89;100.00
71666;BME280;59503;53.486;10.196;2023-06-22T04:32:25;102044.38;;;16.98;100.00
71666;BME280;59503;53.486;10.196;2023-06-22T04:34:50;102034.63;;;17.04;100.00
71666;BME280;59503;53.486;10.196;2023-06-22T04:37:17;102041.00;;;17.11;100.00
71666;BME280;59503;53.486;10.196;2023-06-22T04:39:43;102033.22;;;17.17;100.00
71666;BME280;59503;53.486;10.196;2023-06-22T04:42:08;102036.47;;;17.26;100.00
71666;BME280;59503;53.486;10.196;2023-06-22T04:44:34;102033.78;;;17.33;100.00
71666;BME280;59503;53.486;10.196;2023-06-22T04:47:02;102038.97;;;17.38;100.00
71666;BME280;59503;53.486;10.196;2023-06-22T04:49:34;102043.69;;;17.41;100.00
71666;BME280;59503;53.486;10.196;2023-06-22T04:52:05;102035.13;;;17.46;100.00
71666;BME280;59503;53.486;10.196;2023-06-22T04:54:32;102035.59;;;17.52;100.00
71666;BME280;59503;53.486;10.196;2023-06-22T04:57:05;102047.19;;;17.71;100.00
71666;BME280;59503;53.486;10.196;2023-06-22T04:59:36;102047.59;;;17.73;100.00
71666;BME280;59503;53.486;10.196;2023-06-22T05:02:04;102048.09;;;17.82;100.00
71666;BME280;59503;53.486;10.196;2023-06-22T05:04:31;102050.50;;;17.87;100.00
71666;BME280;59503;53.486;10.196;2023-06-22T05:06:58;102052.94;;;17.96;100.00
71666;BME280;59503;53.486;10.196;2023-06-22T05:09:24;102050.66;;;18.08;100.00
71666;BME280;59503;53.486;10.196;2023-06-22T05:11:52;102060.16;;;18.14;100.00
71666;BME280;59503;53.486;10.196;2023-06-22T05:14:17;102046.81;;;18.20;100.00
71666;BME280;59503;53.486;10.196;2023-06-22T05:16:45;102052.34;;;18.23;100.00
71666;BME280;59503;53.486;10.196;2023-06-22T05:19:10;102050.03;;;18.29;100.00
71666;BME280;59503;53.486;10.196;2023-06-22T05:21:36;102050.09;;;18.36;100.00
71666;BME280;59503;53.486;10.196;2023-06-22T05:24:01;102047.84;;;18.48;100.00
71666;BME280;59503;53.486;10.196;2023-06-22T05:26:29;102057.78;;;18.64;100.00
71666;BME280;59503;53.486;10.196;2023-06-22T05:28:54;102057.88;;;18.78;100.00
71666;BME280;59503;53.486;10.196;2023-06-22T05:31:20;102062.22;;;18.86;100.00
71666;BME280;59503;53.486;10.196;2023-06-22T05:33:47;102057.97;;;18.99;100.00
71666;BME280;59503;53.486;10.196;2023-06-22T05:36:13;102050.94;;;19.12;100.00
71666;BME280;59503;53.486;10.196;2023-06-22T05:38:39;102060.91;;;19.30;100.00
71666;BME280;59503;53.486;10.196;2023-06-22T05:41:06;102054.25;;;19.52;100.00
71666;BME280;59503;53.486;10.196;2023-06-22T05:43:31;102056.28;;;19.84;97.96
71666;BME280;59503;53.486;10.196;2023-06-22T05:45:57;102052.38;;;20.20;95.08
71666;BME280;59503;53.486;10.196;2023-06-22T05:48:23;102059.47;;;20.21;94.17
71666;BME280;59503;53.486;10.196;2023-06-22T05:50:49;102059.06;;;20.43;91.06
71666;BME280;59503;53.486;10.196;2023-06-22T05:53:14;102057.50;;;20.39;89.63
71666;BME280;59503;53.486;10.196;2023-06-22T05:55:40;102056.69;;;20.38;89.62
71666;BME280;59503;53.486;10.196;2023-06-22T05:58:06;102057.84;;;20.62;87.48
71666;BME280;59503;53.486;10.196;2023-06-22T06:00:31;102059.38;;;20.77;86.34
71666;BME280;59503;53.486;10.196;2023-06-22T06:02:57;102047.81;;;21.14;82.36
71666;BME280;59503;53.486;10.196;2023-06-22T06:05:26;102048.97;;;21.23;81.87
71666;BME280;59503;53.486;10.196;2023-06-22T06:07:51;102048.44;;;21.46;80.99
71666;BME280;59503;53.486;10.196;2023-06-22T06:10:17;102047.97;;;21.58;79.64
71666;BME280;59503;53.486;10.196;2023-06-22T06:12:43;102051.84;;;21.71;79.50
71666;BME280;59503;53.486;10.196;2023-06-22T06:15:08;102043.00;;;21.97;78.32
71666;BME280;59503;53.486;10.196;2023-06-22T06:17:34;102045.94;;;22.20;75.60
71666;BME280;59503;53.486;10.196;2023-06-22T06:19:59;102046.59;;;22.35;74.20
71666;BME280;59503;53.486;10.196;2023-06-22T06:22:25;102047.47;;;22.28;76.29
71666;BME280;59503;53.486;10.196;2023-06-22T06:24:50;102045.06;;;22.30;75.72
71666;BME280;59503;53.486;10.196;2023-06-22T06:27:16;102043.09;;;22.71;73.87
71666;BME280;59503;53.486;10.196;2023-06-22T06:29:44;102044.41;;;22.93;71.20
71666;BME280;59503;53.486;10.196;2023-06-22T06:32:13;102039.53;;;23.04;69.13
71666;BME280;59503;53.486;10.196;2023-06-22T06:34:38;102037.84;;;22.80;70.60
71666;BME280;59503;53.486;10.196;2023-06-22T06:37:03;102036.03;;;22.97;69.65
71666;BME280;59503;53.486;10.196;2023-06-22T06:39:29;102040.25;;;23.08;68.04
71666;BME280;59503;53.486;10.196;2023-06-22T06:41:54;102047.56;;;23.25;68.11
71666;BME280;59503;53.486;10.196;2023-06-22T06:44:20;102035.34;;;23.76;65.71
71666;BME280;59503;53.486;10.196;2023-06-22T06:46:46;102035.88;;;23.68;64.83
71666;BME280;59503;53.486;10.196;2023-06-22T06:49:12;102039.50;;;23.65;65.65
71666;BME280;59503;53.486;10.196;2023-06-22T06:51:38;102042.06;;;23.79;65.97
71666;BME280;59503;53.486;10.196;2023-06-22T06:54:03;102019.53;;;24.00;64.31
71666;BME280;59503;53.486;10.196;2023-06-22T06:56:29;102017.09;;;24.25;62.74
71666;BME280;59503;53.486;10.196;2023-06-22T06:58:55;102026.16;;;24.72;59.98
71666;BME280;59503;53.486;10.196;2023-06-22T07:01:20;102023.41;;;24.91;60.55
71666;BME280;59503;53.486;10.196;2023-06-22T07:03:46;102022.97;;;25.48;58.08
71666;BME280;59503;53.486;10.196;2023-06-22T07:06:13;102020.47;;;25.69;55.75
71666;BME280;59503;53.486;10.196;2023-06-22T07:08:38;102024.03;;;26.18;54.11
71666;BME280;59503;53.486;10.196;2023-06-22T07:11:05;102024.31;;;25.76;54.16
71666;BME280;59503;53.486;10.196;2023-06-22T07:13:30;102016.88;;;25.37;56.04
71666;BME280;59503;53.486;10.196;2023-06-22T07:15:56;102021.75;;;25.13;56.65
71666;BME280;59503;53.486;10.196;2023-06-22T07:18:21;102016.38;;;25.03;56.28
71666;BME280;59503;53.486;10.196;2023-06-22T07:20:47;102017.84;;;24.91;57.66
71666;BME280;59503;53.486;10.196;2023-06-22T07:23:12;102020.81;;;25.00;58.49
71666;BME280;59503;53.486;10.196;2023-06-22T07:25:38;102020.44;;;25.18;56.35
71666;BME280;59503;53.486;10.196;2023-06-22T07:28:04;102018.78;;;25.20;58.53
71666;BME280;59503;53.486;10.196;2023-06-22T07:30:30;102029.56;;;25.18;55.49
71666;BME280;59503;53.486;10.196;2023-06-22T07:32:57;102022.88;;;25.51;55.13
71666;BME280;59503;53.486;10.196;2023-06-22T07:35:23;102022.44;;;25.53;56.02
71666;BME280;59503;53.486;10.196;2023-06-22T07:37:48;102022.91;;;25.84;54.68
71666;BME280;59503;53.486;10.196;2023-06-22T07:40:14;102024.09;;;25.83;54.72
71666;BME280;59503;53.486;10.196;2023-06-22T07:42:39;102023.50;;;25.75;55.17
71666;BME280;59503;53.486;10.196;2023-06-22T07:45:05;102020.72;;;25.75;55.25
71666;BME280;59503;53.486;10.196;2023-06-22T07:47:33;102022.72;;;25.74;54.71
71666;BME280;59503;53.486;10.196;2023-06-22T07:50:00;102020.09;;;25.67;56.74
71666;BME280;59503;53.486;10.196;2023-06-22T07:52:29;102023.16;;;25.57;56.35
71666;BME280;59503;53.486;10.196;2023-06-22T07:54:54;102024.88;;;25.51;56.86
71666;BME280;59503;53.486;10.196;2023-06-22T07:57:20;102025.50;;;25.58;56.38
71666;BME280;59503;53.486;10.196;2023-06-22T07:59:46;102026.06;;;26.02;55.88
71666;BME280;59503;53.486;10.196;2023-06-22T08:02:11;102025.00;;;26.12;55.33
71666;BME280;59503;53.486;10.196;2023-06-22T08:04:37;102026.28;;;26.39;54.05
71666;BME280;59503;53.486;10.196;2023-06-22T08:07:03;102021.75;;;26.74;53.15
71666;BME280;59503;53.486;10.196;2023-06-22T08:09:30;102014.69;;;26.69;50.99
71666;BME280;59503;53.486;10.196;2023-06-22T08:11:56;102015.50;;;26.54;50.95
71666;BME280;59503;53.486;10.196;2023-06-22T08:14:23;102014.16;;;26.30;51.78
71666;BME280;59503;53.486;10.196;2023-06-22T08:16:49;102018.53;;;26.59;52.00
71666;BME280;59503;53.486;10.196;2023-06-22T08:19:14;102024.50;;;27.15;49.93
71666;BME280;59503;53.486;10.196;2023-06-22T08:21:40;102022.50;;;27.03;49.16
71666;BME280;59503;53.486;10.196;2023-06-22T08:24:05;102027.03;;;26.97;47.42
71666;BME280;59503;53.486;10.196;2023-06-22T08:26:32;102019.03;;;27.12;47.07
71666;BME280;59503;53.486;10.196;2023-06-22T08:29:01;102018.91;;;27.03;48.47
71666;BME280;59503;53.486;10.196;2023-06-22T08:31:27;102017.84;;;27.63;47.64
71666;BME280;59503;53.486;10.196;2023-06-22T08:33:52;102016.72;;;27.98;48.10
71666;BME280;59503;53.486;10.196;2023-06-22T08:36:18;102020.56;;;28.26;44.16
71666;BME280;59503;53.486;10.196;2023-06-22T08:38:43;102009.16;;;28.20;45.08
71666;BME280;59503;53.486;10.196;2023-06-22T08:41:09;102009.75;;;28.02;48.17
71666;BME280;59503;53.486;10.196;2023-06-22T08:43:35;102004.84;;;28.06;46.90
71666;BME280;59503;53.486;10.196;2023-06-22T08:46:00;102008.78;;;27.34;44.18
71666;BME280;59503;53.486;10.196;2023-06-22T08:48:27;102006.69;;;26.55;45.44
71666;BME280;59503;53.486;10.196;2023-06-22T08:50:53;102003.25;;;26.64;46.28
71666;BME280;59503;53.486;10.196;2023-06-22T08:53:18;102001.59;;;26.38;47.18
71666;BME280;59503;53.486;10.196;2023-06-22T08:55:44;101991.28;;;26.51;47.16
71666;BME280;59503;53.486;10.196;2023-06-22T08:58:10;101991.84;;;26.74;45.83
71666;BME280;59503;53.486;10.196;2023-06-22T09:00:36;101985.66;;;27.08;46.14
71666;BME280;59503;53.486;10.196;2023-06-22T09:03:02;101994.03;;;27.71;44.88
71666;BME280;59503;53.486;10.196;2023-06-22T09:05:28;101998.25;;;28.35;43.55
71666;BME280;59503;53.486;10.196;2023-06-22T09:07:56;101986.81;;;28.63;42.48
71666;BME280;59503;53.486;10.196;2023-06-22T09:10:22;101992.09;;;28.83;42.72
71666;BME280;59503;53.486;10.196;2023-06-22T09:12:47;101983.16;;;29.27;41.24
71666;BME280;59503;53.486;10.196;2023-06-22T09:15:12;101976.03;;;29.05;42.45
71666;BME280;59503;53.486;10.196;2023-06-22T09:17:38;101976.81;;;29.36;41.98
71666;BME280;59503;53.486;10.196;2023-06-22T09:20:04;101981.16;;;29.68;40.88
71666;BME280;59503;53.486;10.196;2023-06-22T09:22:35;101976.72;;;30.15;38.94
71666;BME280;59503;53.486;10.196;2023-06-22T09:25:01;101974.69;;;30.07;40.03
71666;BME280;59503;53.486;10.196;2023-06-22T09:27:26;101973.75;;;30.28;40.50
71666;BME280;59503;53.486;10.196;2023-06-22T09:29:52;101968.91;;;30.47;40.00
71666;BME280;59503;53.486;10.196;2023-06-22T09:32:18;101960.59;;;30.70;39.63
71666;BME280;59503;53.486;10.196;2023-06-22T09:34:44;101962.66;;;30.52;39.82
71666;BME280;59503;53.486;10.196;2023-06-22T09:37:09;101958.00;;;30.39;39.80
71666;BME280;59503;53.486;10.196;2023-06-22T09:39:35;101954.88;;;30.56;38.96
71666;BME280;59503;53.486;10.196;2023-06-22T09:42:01;101949.25;;;30.19;39.93
71666;BME280;59503;53.486;10.196;2023-06-22T09:44:26;101948.03;;;30.48;39.12
71666;BME280;59503;53.486;10.196;2023-06-22T09:46:52;101935.84;;;30.51;39.36
71666;BME280;59503;53.486;10.196;2023-06-22T09:49:17;101943.34;;;29.99;39.33
71666;BME280;59503;53.486;10.196;2023-06-22T09:51:43;101948.31;;;30.50;38.42
71666;BME280;59503;53.486;10.196;2023-06-22T09:54:08;101944.25;;;30.60;38.25
71666;BME280;59503;53.486;10.196;2023-06-22T09:56:34;101955.50;;;30.05;39.06
71666;BME280;59503;53.486;10.196;2023-06-22T09:58:59;101948.16;;;29.81;41.56
71666;BME280;59503;53.486;10.196;2023-06-22T10:01:24;101946.91;;;29.24;42.05
71666;BME280;59503;53.486;10.196;2023-06-22T10:03:52;101938.50;;;28.63;42.70
71666;BME280;59503;53.486;10.196;2023-06-22T10:06:21;101933.97;;;28.44;43.79
71666;BME280;59503;53.486;10.196;2023-06-22T10:08:46;101939.34;;;28.51;44.15
71666;BME280;59503;53.486;10.196;2023-06-22T10:11:13;101919.59;;;28.76;44.98
71666;BME280;59503;53.486;10.196;2023-06-22T10:13:38;101923.06;;;29.77;41.54
71666;BME280;59503;53.486;10.196;2023-06-22T10:16:04;101923.06;;;30.04;40.86
71666;BME280;59503;53.486;10.196;2023-06-22T10:18:30;101921.78;;;30.60;40.24
71666;BME280;59503;53.486;10.196;2023-06-22T10:20:55;101917.66;;;31.29;39.24
71666;BME280;59503;53.486;10.196;2023-06-22T10:23:21;101926.78;;;31.48;38.20
71666;BME280;59503;53.486;10.196;2023-06-22T10:25:47;101915.41;;;31.90;37.20
71666;BME280;59503;53.486;10.196;2023-06-22T10:28:12;101920.38;;;31.71;38.55
71666;BME280;59503;53.486;10.196;2023-06-22T10:30:39;101917.28;;;31.13;38.45
71666;BME280;59503;53.486;10.196;2023-06-22T10:33:07;101916.84;;;29.91;40.95
71666;BME280;59503;53.486;10.196;2023-06-22T10:35:32;101906.28;;;28.89;43.17
71666;BME280;59503;53.486;10.196;2023-06-22T10:37:58;101899.59;;;28.65;43.42
71666;BME280;59503;53.486;10.196;2023-06-22T10:40:23;101898.31;;;28.57;45.36
71666;BME280;59503;53.486;10.196;2023-06-22T10:42:49;101892.72;;;28.35;44.28
71666;BME280;59503;53.486;10.196;2023-06-22T10:45:15;101888.97;;;28.81;43.86
71666;BME280;59503;53.486;10.196;2023-06-22T10:47:41;101893.44;;;29.58;42.89
71666;BME280;59503;53.486;10.196;2023-06-22T10:50:07;101889.72;;;30.33;42.22
71666;BME280;59503;53.486;10.196;2023-06-22T10:52:33;101886.44;;;31.27;40.80
71666;BME280;59503;53.486;10.196;2023-06-22T10:54:58;101881.03;;;31.47;38.87
71666;BME280;59503;53.486;10.196;2023-06-22T10:57:24;101886.16;;;31.49;38.50
71666;BME280;59503;53.486;10.196;2023-06-22T10:59:49;101875.66;;;31.35;39.14
71666;BME280;59503;53.486;10.196;2023-06-22T11:02:15;101876.41;;;31.59;38.32
71666;BME280;59503;53.486;10.196;2023-06-22T11:04:40;101868.75;;;31.03;40.02
71666;BME280;59503;53.486;10.196;2023-06-22T11:07:05;101875.13;;;31.13;40.54
71666;BME280;59503;53.486;10.196;2023-06-22T11:09:31;101880.84;;;30.95;40.96
71666;BME280;59503;53.486;10.196;2023-06-22T11:11:57;101869.22;;;31.02;38.99
71666;BME280;59503;53.486;10.196;2023-06-22T11:14:24;101883.13;;;31.29;39.21
71666;BME280;59503;53.486;10.196;2023-06-22T11:16:50;101856.97;;;31.23;38.63
71666;BME280;59503;53.486;10.196;2023-06-22T11:19:15;101866.03;;;31.18;39.55
71666;BME280;59503;53.486;10.196;2023-06-22T11:21:41;101871.31;;;31.72;37.93
71666;BME280;59503;53.486;10.196;2023-06-22T11:24:06;101869.22;;;31.82;37.61
71666;BME280;59503;53.486;10.196;2023-06-22T11:26:33;101866.16;;;31.71;38.13
71666;BME280;59503;53.486;10.196;2023-06-22T11:28:58;101852.97;;;31.15;39.07
71666;BME280;59503;53.486;10.196;2023-06-22T11:31:24;101849.72;;;31.31;39.23
71666;BME280;59503;53.486;10.196;2023-06-22T11:33:49;101857.06;;;31.05;40.20
71666;BME280;59503;53.486;10.196;2023-06-22T11:36:15;101860.94;;;31.07;40.54
71666;BME280;59503;53.486;10.196;2023-06-22T11:38:41;101856.41;;;31.57;39.09
71666;BME280;59503;53.486;10.196;2023-06-22T11:41:07;101852.00;;;32.03;38.60
71666;BME280;59503;53.486;10.196;2023-06-22T11:43:33;101856.00;;;32.26;37.63
71666;BME280;59503;53.486;10.196;2023-06-22T11:46:00;101844.56;;;32.44;37.39
71666;BME280;59503;53.486;10.196;2023-06-22T11:48:25;101845.53;;;32.41;36.88
71666;BME280;59503;53.486;10.196;2023-06-22T11:50:51;101848.50;;;31.94;37.91
71666;BME280;59503;53.486;10.196;2023-06-22T11:53:16;101852.19;;;32.14;37.57
71666;BME280;59503;53.486;10.196;2023-06-22T11:55:43;101834.53;;;32.14;36.40
71666;BME280;59503;53.486;10.196;2023-06-22T11:58:09;101835.91;;;32.62;38.31
71666;BME280;59503;53.486;10.196;2023-06-22T12:00:35;101828.78;;;33.56;36.29
71666;BME280;59503;53.486;10.196;2023-06-22T12:03:00;101822.44;;;33.41;35.48
71666;BME280;59503;53.486;10.196;2023-06-22T12:05:26;101823.94;;;33.02;35.27
71666;BME280;59503;53.486;10.196;2023-06-22T12:07:54;101820.00;;;32.15;37.02
71666;BME280;59503;53.486;10.196;2023-06-22T12:10:21;101814.94;;;32.05;36.78
71666;BME280;59503;53.486;10.196;2023-06-22T12:12:46;101814.34;;;32.01;36.60
71666;BME280;59503;53.486;10.196;2023-06-22T12:15:12;101802.84;;;31.75;39.02
71666;BME280;59503;53.486;10.196;2023-06-22T12:17:38;101802.31;;;32.00;38.94
71666;BME280;59503;53.486;10.196;2023-06-22T12:20:04;101800.56;;;31.88;37.84
71666;BME280;59503;53.486;10.196;2023-06-22T12:22:33;101803.31;;;31.59;39.68
71666;BME280;59503;53.486;10.196;2023-06-22T12:24:59;101799.00;;;32.16;37.25
71666;BME280;59503;53.486;10.196;2023-06-22T12:27:25;101779.69;;;32.53;37.54
71666;BME280;59503;53.486;10.196;2023-06-22T12:29:50;101788.53;;;32.31;36.83
71666;BME280;59503;53.486;10.196;2023-06-22T12:32:16;101790.91;;;32.67;35.98
71666;BME280;59503;53.486;10.196;2023-06-22T12:34:42;101785.03;;;32.36;36.92
71666;BME280;59503;53.486;10.196;2023-06-22T12:37:08;101791.94;;;31.92;36.74
71666;BME280;59503;53.486;10.196;2023-06-22T12:39:33;101777.34;;;31.79;38.19
71666;BME280;59503;53.486;10.196;2023-06-22T12:41:59;101778.66;;;31.92;38.05